Time;durP1;ratioP1;P1;durP2;ratioP2;P2;SDS_P1;SDS_P2;PMS_P1;PMS_P2;Temp;Humidity;BMP_temperature;BMP_pressure;BME280_temperature;BME280_humidity;BME280_pressure;Samples;Min_cycle;Max_cycle;Signal;HPM_P1;HPM_P2
2022/08/29 00:00:15;;;;;;;2.20;1.97;;;;;;;12.60;91.79;65496.06;5114355;28;20238;-71
2022/08/29 00:02:48;;;;;;;1.87;1.87;;;;;;;12.55;91.86;65489.94;5113389;28;20205;-71
2022/08/29 00:05:18;;;;;;;1.60;1.60;;;;;;;12.46;92.14;65487.78;5114618;28;20169;-71
2022/08/29 00:07:48;;;;;;;1.30;1.30;;;;;;;12.37;92.74;65476.28;5113126;28;20213;-71
2022/08/29 00:10:15;;;;;;;1.50;1.50;;;;;;;12.30;93.23;65462.75;5114228;28;20234;-71
2022/08/29 00:12:42;;;;;;;1.90;1.90;;;;;;;12.29;93.51;65462.22;5114100;28;20189;-71
2022/08/29 00:15:11;;;;;;;1.63;1.63;;;;;;;12.27;93.93;65456.81;5114143;28;20193;-71
2022/08/29 00:17:38;;;;;;;2.93;2.27;;;;;;;;;;5114305;28;20205;-71
2022/08/29 00:20:06;;;;;;;1.70;1.70;;;;;;;12.23;94.61;65455.00;5113512;28;20181;-71
2022/08/29 00:22:32;;;;;;;1.90;1.80;;;;;;;12.22;94.79;65467.44;5113980;28;20197;-72
2022/08/29 00:25:03;;;;;;;1.70;1.70;;;;;;;12.18;95.14;65465.59;5112208;28;20234;-71
2022/08/29 00:27:31;;;;;;;2.13;2.13;;;;;;;12.17;95.35;65454.09;5112984;28;20262;-71
2022/08/29 00:29:58;;;;;;;2.60;1.77;;;;;;;12.17;95.31;65448.31;5114170;28;20181;-71
2022/08/29 00:32:24;;;;;;;2.00;2.00;;;;;;;12.14;95.30;65445.53;5114211;28;20573;-72
2022/08/29 00:34:51;;;;;;;1.87;1.77;;;;;;;12.13;95.29;65444.44;5114385;28;20180;-72
2022/08/29 00:37:17;;;;;;;1.80;1.80;;;;;;;12.11;95.39;65442.22;5112609;28;20209;-71
2022/08/29 00:39:44;;;;;;;2.27;2.27;;;;;;;12.09;95.51;65440.56;5114044;28;20193;-71
2022/08/29 00:42:10;;;;;;;1.60;1.60;;;;;;;;;;5114241;28;20197;-71
2022/08/29 00:44:37;;;;;;;2.60;2.40;;;;;;;11.97;95.97;65427.22;5113737;28;20185;-71
2022/08/29 00:47:10;;;;;;;2.27;2.27;;;;;;;11.94;96.24;65423.38;5113858;28;20683;-71
2022/08/29 00:49:44;;;;;;;2.47;2.47;;;;;;;11.90;96.45;65422.06;5113717;28;20226;-71
2022/08/29 00:52:17;;;;;;;2.63;2.53;;;;;;;11.90;96.68;65418.91;5112665;28;20185;-71
2022/08/29 00:54:48;;;;;;;1.80;1.80;;;;;;;11.89;96.87;65418.34;5110524;28;20181;-71
2022/08/29 00:57:16;;;;;;;2.50;2.50;;;;;;;;;;5115860;28;20213;-71
2022/08/29 00:59:43;;;;;;;2.43;1.70;;;;;;;;;;5116382;28;20237;-71
2022/08/29 01:02:09;;;;;;;1.90;1.90;;;;;;;11.70;97.33;65395.22;5117194;28;20235;-71
2022/08/29 01:04:38;;;;;;;2.43;2.43;;;;;;;11.66;97.53;65395.97;5118100;28;20223;-71
2022/08/29 01:07:06;;;;;;;1.40;1.40;;;;;;;11.62;97.85;65390.97;5117136;28;20767;-71
2022/08/29 01:09:35;;;;;;;2.70;2.03;;;;;;;11.60;98.26;65388.75;5116335;28;20197;-71
2022/08/29 01:12:14;;;;;;;1.90;1.90;;;;;;;11.55;98.52;65386.91;5117457;28;20193;-71
2022/08/29 01:14:55;;;;;;;2.27;2.17;;;;;;;;;;5117268;28;20200;-71
2022/08/29 01:17:25;;;;;;;3.60;2.40;;;;;;;;;;5118085;28;20204;-71
2022/08/29 01:20:13;;;;;;;2.03;2.03;;;;;;;11.43;99.21;65367.84;5116647;28;20242;-71
2022/08/29 01:22:46;;;;;;;1.67;1.57;;;;;;;11.41;99.49;65365.63;5116761;28;20236;-71
2022/08/29 01:25:16;;;;;;;2.27;2.27;;;;;;;11.37;99.62;65363.81;5117972;28;20202;-71
2022/08/29 01:27:47;;;;;;;2.10;2.10;;;;;;;11.32;99.69;65360.84;5099033;28;20213;-71
2022/08/29 01:30:14;;;;;;;1.77;1.77;;;;;;;11.29;99.92;65365.88;5115962;28;20193;-71
2022/08/29 01:32:40;;;;;;;2.13;2.00;;;;;;;11.27;100.00;65351.22;5117281;28;20170;-71
2022/08/29 01:35:07;;;;;;;2.13;2.03;;;;;;;11.21;100.00;65349.19;5098936;28;20196;-71
2022/08/29 01:37:37;;;;;;;2.67;2.30;;;;;;;11.11;99.89;65333.47;5114004;28;20619;-71
2022/08/29 01:40:05;;;;;;;1.70;1.60;;;;;;;10.98;100.00;65330.00;5117158;28;20176;-71
2022/08/29 01:42:31;;;;;;;2.00;2.00;;;;;;;10.94;100.00;65320.38;5115353;28;20584;-71
2022/08/29 01:45:04;;;;;;;2.47;2.37;;;;;;;10.91;100.00;65316.50;5116115;28;20193;-71
2022/08/29 01:47:36;;;;;;;2.27;2.27;;;;;;;10.86;100.00;65311.53;5117165;28;20229;-71
2022/08/29 01:50:09;;;;;;;2.03;2.03;;;;;;;10.85;100.00;65304.66;5116044;28;20921;-71
2022/08/29 01:52:35;;;;;;;1.90;1.80;;;;;;;10.84;100.00;65308.72;5116285;28;20173;-71
2022/08/29 01:55:02;;;;;;;4.00;2.10;;;;;;;10.77;100.00;65296.34;5116812;28;20230;-71
2022/08/29 01:57:28;;;;;;;2.33;2.33;;;;;;;10.73;100.00;65289.88;5116690;28;20259;-71
2022/08/29 01:59:55;;;;;;;2.73;2.63;;;;;;;;;;5115762;28;20278;-71
2022/08/29 02:02:26;;;;;;;2.70;2.70;;;;;;;10.67;100.00;65285.25;5115393;28;20235;-71
2022/08/29 02:04:52;;;;;;;2.00;2.00;;;;;;;10.62;100.00;65293.25;5114966;28;20286;-71
2022/08/29 02:07:21;;;;;;;2.30;2.23;;;;;;;10.61;100.00;65278.59;5115180;28;20201;-71
2022/08/29 02:09:48;;;;;;;2.77;2.77;;;;;;;10.55;100.00;65271.94;5116139;28;20248;-71
2022/08/29 02:12:15;;;;;;;3.00;2.93;;;;;;;10.54;100.00;65271.41;5115845;28;20200;-71
2022/08/29 02:14:43;;;;;;;2.40;2.40;;;;;;;10.53;100.00;65270.28;5115516;28;20215;-71
2022/08/29 02:17:09;;;;;;;2.57;2.57;;;;;;;10.54;100.00;65281.22;5116343;28;20235;-71
2022/08/29 02:19:37;;;;;;;2.60;2.50;;;;;;;;;;5116329;28;20191;-71
2022/08/29 02:22:05;;;;;;;2.60;2.50;;;;;;;10.52;100.00;65268.63;5116227;28;20208;-71
2022/08/29 02:24:32;;;;;;;2.60;2.60;;;;;;;10.51;100.00;65270.69;5115233;28;20541;-71
2022/08/29 02:26:59;;;;;;;3.50;2.37;;;;;;;10.50;100.00;65264.38;5115204;28;20260;-71
2022/08/29 02:29:27;;;;;;;2.20;2.20;;;;;;;10.50;100.00;65266.97;5116154;28;20189;-71
2022/08/29 02:32:05;;;;;;;2.37;2.37;;;;;;;10.45;100.00;65264.03;5116412;28;20527;-71
2022/08/29 02:34:32;;;;;;;2.60;2.60;;;;;;;;;;5115054;28;20196;-71
2022/08/29 02:36:58;;;;;;;3.00;3.00;;;;;;;10.25;100.00;65241.88;5114948;28;20200;-71
2022/08/29 02:39:25;;;;;;;2.17;2.17;;;;;;;;;;5115103;28;20651;-71
2022/08/29 02:41:52;;;;;;;2.67;2.67;;;;;;;;;;5115864;28;20203;-71
2022/08/29 02:44:19;;;;;;;3.43;2.60;;;;;;;10.16;100.00;65227.25;5115839;28;20245;-71
2022/08/29 02:46:46;;;;;;;2.40;2.40;;;;;;;10.14;100.00;65228.19;5116038;28;20616;-71
2022/08/29 02:49:12;;;;;;;3.00;2.90;;;;;;;10.13;100.00;65227.06;5116304;28;20234;-71
2022/08/29 02:51:39;;;;;;;3.17;3.10;;;;;;;10.15;100.00;65229.28;5112121;28;20185;-71
2022/08/29 02:54:06;;;;;;;2.67;2.63;;;;;;;10.14;100.00;65238.56;5114781;28;20524;-71
2022/08/29 02:56:32;;;;;;;2.73;2.63;;;;;;;10.14;100.00;65227.59;5115201;28;20745;-71
2022/08/29 02:58:58;;;;;;;2.27;2.27;;;;;;;10.13;100.00;65234.28;5116374;28;20193;-71
2022/08/29 03:01:26;;;;;;;2.93;2.83;;;;;;;10.12;100.00;65225.94;5113051;28;20222;-71
2022/08/29 03:03:53;;;;;;;2.00;1.90;;;;;;;10.10;100.00;65226.34;5115964;28;20266;-71
2022/08/29 03:06:20;;;;;;;2.87;2.77;;;;;;;10.08;100.00;65218.94;5113849;28;20248;-71
2022/08/29 03:08:47;;;;;;;3.53;2.37;;;;;;;9.95;100.00;65222.13;5115409;28;20182;-71
2022/08/29 03:11:15;;;;;;;2.80;2.73;;;;;;;9.82;100.00;65195.88;5113992;28;20205;-71
2022/08/29 03:13:43;;;;;;;3.63;3.53;;;;;;;9.75;100.00;65190.16;5115270;28;20231;-71
2022/08/29 03:16:11;;;;;;;3.20;2.90;;;;;;;9.66;100.00;65180.75;5114008;28;20205;-71
2022/08/29 03:18:38;;;;;;;3.20;3.20;;;;;;;9.55;100.00;65161.34;5114298;28;20185;-71
2022/08/29 03:21:13;;;;;;;3.43;3.17;;;;;;;9.56;100.00;65170.22;5114629;28;20245;-71
2022/08/29 03:23:40;;;;;;;3.43;3.33;;;;;;;9.54;100.00;65172.63;5115292;28;20241;-71
2022/08/29 03:26:06;;;;;;;2.70;2.63;;;;;;;9.54;100.00;65162.81;5114075;28;20554;-71
2022/08/29 03:28:33;;;;;;;2.97;2.97;;;;;;;9.56;100.00;65170.22;5115353;28;20185;-70
2022/08/29 03:30:59;;;;;;;3.00;3.00;;;;;;;9.59;100.00;65173.00;5113744;28;20189;-71
2022/08/29 03:33:26;;;;;;;2.60;2.60;;;;;;;;;;5114899;28;20177;-71
2022/08/29 03:35:52;;;;;;;3.00;2.90;;;;;;;9.63;100.00;65170.19;5114824;28;20182;-71
2022/08/29 03:38:19;;;;;;;3.20;3.20;;;;;;;9.65;100.00;65180.19;5112644;28;20274;-71
2022/08/29 03:40:45;;;;;;;3.10;3.00;;;;;;;;;;5113844;28;20184;-71
2022/08/29 03:43:11;;;;;;;2.87;2.77;;;;;;;9.62;100.00;65176.84;5113283;28;20201;-71
2022/08/29 03:45:38;;;;;;;2.73;2.60;;;;;;;9.60;100.00;65172.06;5114206;28;20193;-71
2022/08/29 03:48:05;;;;;;;2.77;2.73;;;;;;;;;;5114568;28;20205;-71
2022/08/29 03:50:32;;;;;;;3.23;3.13;;;;;;;9.55;100.00;65171.69;5112671;28;20238;-71
2022/08/29 03:52:59;;;;;;;2.30;2.30;;;;;;;9.51;100.00;65164.13;5114144;28;20181;-71
2022/08/29 03:55:25;;;;;;;2.50;2.50;;;;;;;9.50;100.00;65161.00;5114481;28;20177;-71
2022/08/29 03:57:54;;;;;;;3.27;2.87;;;;;;;9.50;100.00;65158.41;5114358;28;20771;-71
2022/08/29 04:00:21;;;;;;;3.50;3.20;;;;;;;;;;5113395;28;20197;-71
2022/08/29 04:02:48;;;;;;;2.80;2.80;;;;;;;9.49;100.00;65162.47;5113641;28;20197;-71
2022/08/29 04:05:16;;;;;;;3.53;3.23;;;;;;;9.51;100.00;65166.72;5113261;28;20197;-71
2022/08/29 04:07:46;;;;;;;3.77;3.77;;;;;;;9.51;100.00;65158.97;5114224;28;20695;-71
2022/08/29 04:10:16;;;;;;;2.90;2.90;;;;;;;;;;5113223;28;20185;-71
2022/08/29 04:12:43;;;;;;;3.27;3.23;;;;;;;9.50;100.00;65155.81;5114109;28;20185;-71
2022/08/29 04:15:09;;;;;;;3.43;3.33;;;;;;;9.48;100.00;65148.41;5114198;28;20313;-71
2022/08/29 04:17:37;;;;;;;3.10;3.10;;;;;;;9.50;100.00;65161.00;5114145;28;20343;-71
2022/08/29 04:20:18;;;;;;;3.40;3.10;;;;;;;9.53;100.00;65161.72;5111916;28;20189;-71
2022/08/29 04:22:51;;;;;;;3.23;3.13;;;;;;;9.56;100.00;65167.63;5114223;28;20197;-71
2022/08/29 04:25:17;;;;;;;3.30;3.20;;;;;;;9.53;100.00;65179.84;5113966;28;20675;-71
2022/08/29 04:27:44;;;;;;;5.07;3.23;;;;;;;9.55;100.00;65163.94;5113940;28;20209;-71
2022/08/29 04:30:14;;;;;;;2.93;2.73;;;;;;;9.57;100.00;65168.16;5112851;28;20189;-71
2022/08/29 04:32:41;;;;;;;3.10;3.00;;;;;;;9.60;100.00;65174.09;5113374;28;20170;-71
2022/08/29 04:35:11;;;;;;;3.30;3.20;;;;;;;9.58;100.00;65171.88;5094789;28;20242;-71
2022/08/29 04:37:39;;;;;;;3.17;3.17;;;;;;;9.54;100.00;65173.19;5092601;28;20994;-71
2022/08/29 04:40:08;;;;;;;2.93;2.93;;;;;;;9.53;100.00;65179.84;5111328;28;20238;-71
2022/08/29 04:42:36;;;;;;;3.00;2.80;;;;;;;9.54;100.00;65162.28;5111231;28;20258;-72
2022/08/29 04:45:10;;;;;;;3.07;3.07;;;;;;;9.53;100.00;65169.50;5113971;28;20309;-72
2022/08/29 04:47:38;;;;;;;3.07;2.87;;;;;;;9.52;100.00;65173.56;5113305;28;20208;-71
2022/08/29 04:50:06;;;;;;;3.57;3.47;;;;;;;9.48;100.00;65161.34;5112638;28;20193;-71
2022/08/29 04:52:33;;;;;;;3.27;3.20;;;;;;;9.47;100.00;65152.47;5113939;28;20246;-71
2022/08/29 04:54:59;;;;;;;3.50;3.40;;;;;;;9.53;100.00;65166.91;5112669;28;20215;-71
2022/08/29 04:57:26;;;;;;;3.07;2.93;;;;;;;9.41;100.00;65145.84;5113549;28;20291;-71
2022/08/29 04:59:57;;;;;;;3.20;3.00;;;;;;;9.34;100.00;65138.63;5113302;28;20193;-70
2022/08/29 05:02:25;;;;;;;3.23;3.00;;;;;;;9.27;100.00;65136.06;5093440;28;20198;-71
2022/08/29 05:04:52;;;;;;;3.50;3.30;;;;;;;9.25;100.00;65141.06;5093462;28;20182;-71
2022/08/29 05:07:19;;;;;;;2.77;2.67;;;;;;;;;;5104728;28;20225;-71
2022/08/29 05:09:56;;;;;;;3.37;3.27;;;;;;;9.25;100.00;65136.44;5113568;28;20212;-71
2022/08/29 05:12:24;;;;;;;3.03;3.03;;;;;;;9.25;100.00;65139.03;5113314;28;20230;-71
2022/08/29 05:14:52;;;;;;;3.63;3.43;;;;;;;9.23;100.00;65136.28;5111599;28;20185;-71
2022/08/29 05:17:19;;;;;;;3.63;3.53;;;;;;;9.17;100.00;65127.59;5113657;28;20217;-71
2022/08/29 05:19:45;;;;;;;3.20;3.20;;;;;;;9.09;100.00;65116.72;5112520;28;20690;-71
2022/08/29 05:22:12;;;;;;;3.90;3.80;;;;;;;;;;5113227;28;20220;-71
2022/08/29 05:24:39;;;;;;;3.73;3.70;;;;;;;9.14;100.00;65137.22;5112662;28;20566;-71
2022/08/29 05:27:11;;;;;;;3.53;3.53;;;;;;;9.16;100.00;65120.75;5113550;28;20205;-71
2022/08/29 05:29:39;;;;;;;4.13;3.83;;;;;;;9.19;100.00;65126.66;5113154;28;20246;-71
2022/08/29 05:32:07;;;;;;;4.03;3.53;;;;;;;9.24;100.00;65132.19;5111150;28;20193;-71
2022/08/29 05:34:34;;;;;;;3.90;3.90;;;;;;;9.27;100.00;65138.66;5113828;28;20181;-71
2022/08/29 05:37:01;;;;;;;20.53;4.53;;;;;;;;;;5113155;28;20201;-71
2022/08/29 05:39:28;;;;;;;19.83;4.93;;;;;;;9.32;100.00;65141.06;5113688;28;20215;-71
2022/08/29 05:41:56;;;;;;;9.60;4.07;;;;;;;9.34;100.00;65143.25;5112623;28;20196;-71
2022/08/29 05:44:23;;;;;;;5.93;4.03;;;;;;;9.40;100.00;65157.69;5116552;28;20201;-71
2022/08/29 05:46:49;;;;;;;16.53;4.83;;;;;;;9.46;100.00;65153.97;5116085;28;20205;-71
2022/08/29 05:49:16;;;;;;;21.43;4.67;;;;;;;;;;5115770;28;20262;-71
2022/08/29 05:51:42;;;;;;;5.83;4.60;;;;;;;9.54;100.00;65162.81;5116139;28;20230;-71
2022/08/29 05:54:09;;;;;;;9.83;5.40;;;;;;;9.63;100.00;65172.78;5117092;28;20178;-71
2022/08/29 05:56:36;;;;;;;3.67;3.67;;;;;;;9.77;100.00;65187.19;5116466;28;20671;-70
2022/08/29 05:59:02;;;;;;;4.57;4.23;;;;;;;9.87;100.00;65195.66;5116721;28;20223;-71
2022/08/29 06:01:32;;;;;;;4.93;4.53;;;;;;;9.92;100.00;65204.34;5115809;28;20671;-71
2022/08/29 06:03:59;;;;;;;5.30;4.37;;;;;;;9.98;100.00;65215.63;5096736;28;20202;-71
2022/08/29 06:06:27;;;;;;;4.40;4.00;;;;;;;10.05;100.00;65218.19;5096407;28;20600;-71
2022/08/29 06:08:57;;;;;;;4.13;3.83;;;;;;;10.14;100.00;65225.00;5113793;28;20673;-71
2022/08/29 06:11:29;;;;;;;6.67;4.40;;;;;;;10.26;100.00;65238.34;5116299;28;20224;-71
2022/08/29 06:13:56;;;;;;;4.80;4.53;;;;;;;10.42;100.00;65258.09;5115472;28;20177;-70
2022/08/29 06:16:25;;;;;;;5.43;5.07;;;;;;;10.59;100.00;65286.78;5108845;28;20218;-71
2022/08/29 06:18:52;;;;;;;4.57;4.50;;;;;;;10.71;100.00;65298.03;5115058;28;20208;-69
2022/08/29 06:21:18;;;;;;;6.70;4.10;;;;;;;10.86;100.00;65297.97;5114826;28;20608;-70
2022/08/29 06:23:46;;;;;;;4.77;4.10;;;;;;;11.01;100.00;65322.94;5116152;28;20253;-71
2022/08/29 06:26:13;;;;;;;4.90;4.40;;;;;;;11.17;100.00;65329.19;5115556;28;20180;-70
2022/08/29 06:28:44;;;;;;;8.73;4.33;;;;;;;11.28;100.00;65357.53;5116952;28;20244;-71
2022/08/29 06:31:27;;;;;;;4.70;4.40;;;;;;;11.42;100.00;65364.16;5117022;28;20170;-71
2022/08/29 06:33:55;;;;;;;9.73;4.33;;;;;;;;;;5108303;28;20191;-70
2022/08/29 06:36:26;;;;;;;7.60;3.53;;;;;;;11.62;100.00;65398.78;5115090;28;20625;-71
2022/08/29 06:38:57;;;;;;;5.07;4.67;;;;;;;11.73;100.00;65398.53;5116269;28;20485;-71
2022/08/29 06:41:25;;;;;;;3.40;3.33;;;;;;;11.78;100.00;65406.69;5115972;28;20177;-71
2022/08/29 06:43:53;;;;;;;3.77;3.50;;;;;;;11.85;100.00;65411.88;5112781;28;20209;-71
2022/08/29 06:46:26;;;;;;;4.40;4.03;;;;;;;11.91;100.00;65425.22;5114627;28;20217;-71
2022/08/29 06:48:54;;;;;;;8.70;3.23;;;;;;;11.97;100.00;65429.28;5116042;28;20185;-71
2022/08/29 06:51:21;;;;;;;3.30;3.30;;;;;;;12.00;100.00;65430.00;5115661;28;20234;-72
2022/08/29 06:53:47;;;;;;;3.40;3.30;;;;;;;12.03;100.00;65433.34;5112252;28;20539;-71
2022/08/29 06:56:14;;;;;;;4.17;3.53;;;;;;;12.05;100.00;65432.97;5115014;28;20223;-71
2022/08/29 06:58:41;;;;;;;3.13;3.03;;;;;;;12.15;100.00;65443.50;5114648;28;20193;-71
2022/08/29 07:01:14;;;;;;;3.80;3.40;;;;;;;12.19;100.00;65451.09;5114646;28;20597;-71
2022/08/29 07:03:41;;;;;;;6.30;2.93;;;;;;;12.27;100.00;65462.56;5115762;28;20629;-72
2022/08/29 07:06:08;;;;;;;4.57;4.20;;;;;;;12.38;100.00;65469.03;5112685;28;20189;-71
2022/08/29 07:08:35;;;;;;;5.77;3.07;;;;;;;12.43;100.00;65474.00;5112989;28;20648;-71
2022/08/29 07:11:07;;;;;;;3.40;3.30;;;;;;;12.55;99.53;65497.75;5114747;28;20594;-71
2022/08/29 07:13:34;;;;;;;3.20;3.20;;;;;;;;;;5108898;28;20189;-71
2022/08/29 07:16:00;;;;;;;3.93;3.63;;;;;;;12.73;99.50;65506.78;5105643;28;20208;-70
2022/08/29 07:18:28;;;;;;;3.20;3.10;;;;;;;12.86;98.33;65524.38;5111700;28;20189;-70
2022/08/29 07:20:54;;;;;;;3.43;3.07;;;;;;;12.86;96.50;65524.38;5114218;28;20266;-71
2022/08/29 07:23:21;;;;;;;3.90;3.43;;;;;;;12.88;95.76;65526.59;5112187;28;20250;-71
2022/08/29 07:25:47;;;;;;;3.70;3.40;;;;;;;;;;5115106;28;20181;-71
2022/08/29 07:28:14;;;;;;;2.70;2.63;;;;;;;12.93;94.90;65529.56;5114407;28;20209;-71
2022/08/29 07:30:40;;;;;;;3.40;3.30;;;;;;;;;;5111331;28;20254;-69
2022/08/29 07:33:07;;;;;;;3.10;3.00;;;;;;;13.17;94.57;65557.69;5109657;28;20269;-70
2022/08/29 07:35:33;;;;;;;9.30;3.40;;;;;;;13.33;94.70;65575.50;5102002;28;20189;-69
2022/08/29 07:38:00;;;;;;;3.40;3.20;;;;;;;;;;5106984;28;20205;-71
2022/08/29 07:40:28;;;;;;;5.57;2.90;;;;;;;13.51;92.39;65599.63;5105808;28;20226;-70
2022/08/29 07:42:54;;;;;;;3.20;3.00;;;;;;;13.63;90.90;65607.72;5110337;28;20197;-71
2022/08/29 07:45:21;;;;;;;4.10;3.10;;;;;;;;;;5111749;28;20238;-71
2022/08/29 07:47:47;;;;;;;3.70;3.40;;;;;;;;;;5110556;28;20209;-70
2022/08/29 07:50:13;;;;;;;10.00;2.83;;;;;;;14.14;88.38;65671.69;5113237;28;20189;-71
2022/08/29 07:52:40;;;;;;;3.10;2.83;;;;;;;14.22;88.33;65664.94;5113690;28;20700;-71
2022/08/29 07:55:06;;;;;;;3.03;2.93;;;;;;;;;;5113082;28;20197;-70
2022/08/29 07:57:33;;;;;;;2.47;2.47;;;;;;;;;;5110068;28;20742;-71
2022/08/29 08:00:08;;;;;;;3.10;3.00;;;;;;;14.61;84.40;65722.31;5111156;28;20650;-71
2022/08/29 08:02:37;;;;;;;3.00;2.90;;;;;;;14.73;83.94;65717.94;5112275;28;20203;-71
2022/08/29 08:05:04;;;;;;;6.03;2.70;;;;;;;;;;5108962;28;20211;-71
2022/08/29 08:07:33;;;;;;;8.43;2.60;;;;;;;14.78;83.31;65730.78;5114239;28;20291;-71
2022/08/29 08:10:00;;;;;;;2.40;2.20;;;;;;;;;;5107681;28;20250;-71
2022/08/29 08:12:27;;;;;;;2.90;2.80;;;;;;;;;;5112936;28;20566;-71
2022/08/29 08:14:54;;;;;;;2.87;2.87;;;;;;;14.89;82.31;65743.03;5111290;28;20215;-71
2022/08/29 08:17:20;;;;;;;2.50;2.33;;;;;;;14.93;82.12;65747.50;5109229;28;20217;-71
2022/08/29 08:19:47;;;;;;;2.43;2.43;;;;;;;14.85;81.73;65743.78;5112162;28;20181;-72
2022/08/29 08:22:13;;;;;;;3.80;2.50;;;;;;;;;;5113035;28;20235;-72
2022/08/29 08:24:39;;;;;;;2.30;2.17;;;;;;;;;;5112014;28;20201;-71
2022/08/29 08:27:06;;;;;;;2.63;2.60;;;;;;;14.88;81.70;65752.38;5111537;28;20217;-71
2022/08/29 08:29:33;;;;;;;4.93;2.73;;;;;;;;;;5114513;28;20215;-72
2022/08/29 08:31:59;;;;;;;3.90;2.37;;;;;;;14.98;82.07;65747.81;5112061;28;20200;-71
2022/08/29 08:34:27;;;;;;;4.00;2.80;;;;;;;15.03;81.43;65761.22;5110162;28;20181;-71
2022/08/29 08:36:54;;;;;;;4.47;2.70;;;;;;;;;;5109899;28;20208;-71
2022/08/29 08:39:21;;;;;;;2.40;2.40;;;;;;;15.17;81.04;65773.63;5107558;28;20193;-71
2022/08/29 08:41:52;;;;;;;5.10;2.33;;;;;;;15.20;80.59;65776.41;5106846;28;20235;-71
2022/08/29 08:44:21;;;;;;;2.67;2.57;;;;;;;;;;5106192;28;20255;-71
2022/08/29 08:46:52;;;;;;;2.37;2.30;;;;;;;15.41;79.61;65805.00;5107786;28;20274;-70
2022/08/29 08:49:37;;;;;;;2.30;2.10;;;;;;;15.38;79.95;65797.00;5107405;28;20186;-69
2022/08/29 08:52:12;;;;;;;2.63;2.60;;;;;;;15.39;79.91;65797.56;5107115;28;20667;-71
2022/08/29 08:54:47;;;;;;;2.60;2.47;;;;;;;15.51;79.84;65810.38;5103803;28;20178;-71
2022/08/29 08:57:14;;;;;;;3.63;2.30;;;;;;;;;;5109107;28;20254;-71
2022/08/29 08:59:45;;;;;;;2.97;2.70;;;;;;;15.71;78.08;65834.69;5107419;28;20647;-71
2022/08/29 09:02:30;;;;;;;3.10;2.80;;;;;;;;;;5108674;28;20185;-70
2022/08/29 09:05:18;;;;;;;2.33;2.13;;;;;;;;;;5110192;28;20201;-72
2022/08/29 09:07:51;;;;;;;2.00;2.00;;;;;;;15.86;76.92;65854.00;5110932;28;20273;-71
2022/08/29 09:10:27;;;;;;;2.20;2.10;;;;;;;;;;5103590;28;20185;-71
2022/08/29 09:13:01;;;;;;;2.40;2.27;;;;;;;15.71;77.47;65839.94;5111598;28;20193;-71
2022/08/29 09:15:40;;;;;;;3.40;2.20;;;;;;;15.71;77.93;65835.25;5108493;28;20720;-71
2022/08/29 09:18:13;;;;;;;2.53;2.43;;;;;;;15.74;78.11;65835.44;5111211;28;20217;-71
2022/08/29 09:20:43;;;;;;;4.43;2.57;;;;;;;15.71;77.56;65837.31;5112683;28;20193;-71
2022/08/29 09:23:20;;;;;;;5.27;3.13;;;;;;;15.66;77.85;65829.69;5110512;28;20249;-71
2022/08/29 09:25:46;;;;;;;5.73;2.37;;;;;;;;;;5110957;28;20185;-71
2022/08/29 09:28:13;;;;;;;2.17;2.17;;;;;;;15.68;77.13;65822.00;5107937;28;20250;-71
2022/08/29 09:30:41;;;;;;;2.53;2.30;;;;;;;;;;5106313;28;20193;-69
2022/08/29 09:33:14;;;;;;;2.13;2.03;;;;;;;;;;5108110;28;20177;-71
2022/08/29 09:35:44;;;;;;;2.30;2.10;;;;;;;15.71;77.82;65835.25;5113076;28;20226;-71
2022/08/29 09:38:16;;;;;;;2.57;2.40;;;;;;;;;;5114140;28;20273;-70
2022/08/29 09:40:49;;;;;;;2.50;2.30;;;;;;;;;;5113237;28;20249;-71
2022/08/29 09:43:17;;;;;;;7.80;2.67;;;;;;;;;;5113437;28;20178;-71
2022/08/29 09:46:17;;;;;;;5.67;2.23;;;;;;;15.81;77.36;65843.22;5110879;28;20242;-71
2022/08/29 09:49:04;;;;;;;2.40;2.30;;;;;;;15.75;77.35;65844.94;5107534;28;20193;-71
2022/08/29 09:51:36;;;;;;;1.97;1.97;;;;;;;15.79;77.60;65840.97;5112131;28;20251;-71
2022/08/29 09:54:13;;;;;;;2.10;2.00;;;;;;;15.89;77.54;65846.91;5111626;28;20189;-71
2022/08/29 09:56:57;;;;;;;3.40;2.63;;;;;;;15.93;77.26;65859.78;5115610;28;20261;-71
2022/08/29 09:59:27;;;;;;;2.40;2.33;;;;;;;16.00;76.79;65866.44;5115139;28;20213;-71
2022/08/29 10:02:12;;;;;;;2.10;2.00;;;;;;;16.05;75.98;65872.56;5116975;28;20251;-72
2022/08/29 10:04:40;;;;;;;2.30;2.20;;;;;;;;;;5115946;28;20533;-70
2022/08/29 10:07:13;;;;;;;6.37;2.10;;;;;;;;;;5113555;28;20309;-71
2022/08/29 10:09:39;;;;;;;2.43;2.03;;;;;;;;;;5112989;28;20687;-71
2022/08/29 10:12:12;;;;;;;3.30;3.10;;;;;;;16.60;73.89;65940.59;5106447;28;20224;-71
2022/08/29 10:14:45;;;;;;;2.13;2.03;;;;;;;;;;5111156;28;20190;-72
2022/08/29 10:20:07;;;;;;;2.63;2.53;;;;;;;;;;5116503;28;20595;-72
2022/08/29 10:22:34;;;;;;;2.20;2.10;;;;;;;;;;5097450;28;20193;-71
2022/08/29 10:25:07;;;;;;;2.40;2.30;;;;;;;17.05;71.48;65973.91;5110314;28;20255;-71
2022/08/29 10:27:52;;;;;;;3.00;2.73;;;;;;;17.02;71.55;65970.59;5112456;28;20224;-72
2022/08/29 10:30:25;;;;;;;2.70;2.50;;;;;;;;;;5106088;28;20686;-72
2022/08/29 10:33:16;;;;;;;2.30;2.00;;;;;;;;;;5111923;28;20189;-71
2022/08/29 10:35:49;;;;;;;2.43;2.33;;;;;;;;;;5089261;28;20219;-71
2022/08/29 10:38:25;;;;;;;2.80;2.70;;;;;;;;;;5112629;28;20687;-71
2022/08/29 10:41:07;;;;;;;3.23;2.27;;;;;;;17.20;70.43;65998.50;5108460;28;20193;-71
2022/08/29 10:43:47;;;;;;;2.23;2.13;;;;;;;17.04;70.70;65983.31;5101806;28;20645;-71
2022/08/29 10:46:14;;;;;;;4.80;3.13;;;;;;;;;;5113851;28;20228;-72
2022/08/29 10:48:45;;;;;;;4.50;2.37;;;;;;;;;;5110045;28;20193;-71
2022/08/29 10:51:16;;;;;;;2.17;2.17;;;;;;;;;;5109700;28;20303;-72
2022/08/29 10:53:48;;;;;;;2.27;2.27;;;;;;;17.23;69.37;65999.25;5111348;28;20217;-71
2022/08/29 10:56:22;;;;;;;3.13;2.23;;;;;;;17.21;69.98;65999.63;5108478;28;20225;-72
2022/08/29 10:59:00;;;;;;;2.87;2.60;;;;;;;17.30;70.08;66001.25;5107395;28;20659;-72
2022/08/29 11:01:41;;;;;;;3.50;3.40;;;;;;;17.57;68.73;66028.16;5113076;28;20251;-71
2022/08/29 11:04:16;;;;;;;9.37;2.67;;;;;;;;;;5110342;28;20209;-72
2022/08/29 11:06:46;;;;;;;1.90;1.90;;;;;;;;;;5110484;28;20221;-71
2022/08/29 11:09:24;;;;;;;1.83;1.83;;;;;;;17.75;68.70;66056.13;5111962;28;20220;-71
2022/08/29 11:12:07;;;;;;;2.37;2.37;;;;;;;17.83;68.39;66064.50;5115338;28;20227;-72
2022/08/29 11:14:39;;;;;;;5.17;2.40;;;;;;;17.80;68.89;66064.34;5113934;28;20234;-71
2022/08/29 11:17:11;;;;;;;2.60;2.40;;;;;;;17.80;68.59;66055.91;5114543;28;20213;-72
2022/08/29 11:19:48;;;;;;;2.70;2.60;;;;;;;17.81;67.64;66054.94;5114670;28;20216;-72
2022/08/29 11:22:20;;;;;;;2.03;1.93;;;;;;;;;;5115790;28;20193;-72
2022/08/29 11:24:57;;;;;;;3.40;2.73;;;;;;;;;;5115109;28;20236;-72
2022/08/29 11:27:25;;;;;;;2.60;2.37;;;;;;;;;;5113882;28;20626;-72
2022/08/29 11:30:05;;;;;;;4.30;2.50;;;;;;;18.30;66.78;66108.50;5115323;28;20193;-72
2022/08/29 11:33:14;;;;;;;4.70;2.70;;;;;;;18.41;66.16;66128.09;5107504;28;20188;-71
2022/08/29 11:36:26;;;;;;;4.90;2.40;;;;;;;18.19;67.34;66104.09;5107412;28;20181;-72
2022/08/29 11:39:23;;;;;;;2.00;2.00;;;;;;;18.12;67.29;66099.47;5114312;28;20221;-72
2022/08/29 11:41:55;;;;;;;3.47;3.27;;;;;;;18.11;67.11;66095.19;5105538;28;20219;-69
2022/08/29 11:44:30;;;;;;;2.87;2.77;;;;;;;;;;5111148;28;20678;-72
2022/08/29 11:46:57;;;;;;;4.17;2.73;;;;;;;;;;5110222;28;20238;-71
2022/08/29 11:49:44;;;;;;;3.23;2.80;;;;;;;;;;5114943;28;20197;-72
2022/08/29 11:52:11;;;;;;;4.60;2.80;;;;;;;;;;5112803;28;20209;-72
2022/08/29 11:54:38;;;;;;;2.70;1.90;;;;;;;18.04;67.63;66090.00;5113680;28;20646;-72
2022/08/29 11:57:04;;;;;;;3.53;3.50;;;;;;;;;;5114473;28;20209;-72
2022/08/29 11:59:53;;;;;;;5.77;3.37;;;;;;;;;;5114691;28;20531;-73
2022/08/29 12:02:29;;;;;;;3.60;3.50;;;;;;;18.16;66.45;66100.75;5112997;28;20602;-72
2022/08/29 12:05:07;;;;;;;4.40;4.00;;;;;;;18.19;66.09;66106.72;5113475;28;20201;-72
2022/08/29 12:07:39;;;;;;;4.33;4.03;;;;;;;18.24;65.59;66109.13;5111227;28;20621;-72
2022/08/29 12:10:27;;;;;;;4.03;2.90;;;;;;;18.24;65.36;66109.69;5114252;28;20197;-73
2022/08/29 12:12:56;;;;;;;2.93;2.90;;;;;;;18.15;66.46;66094.41;5111800;28;20189;-72
2022/08/29 12:15:28;;;;;;;2.93;2.87;;;;;;;;;;5105832;28;20234;-71
2022/08/29 12:17:56;;;;;;;2.53;2.53;;;;;;;;;;5111089;28;20247;-69
2022/08/29 12:20:28;;;;;;;2.77;2.77;;;;;;;18.31;64.99;66116.94;5113844;28;20276;-72
2022/08/29 12:22:58;;;;;;;6.67;3.70;;;;;;;;;;5112937;28;20217;-72
2022/08/29 12:25:30;;;;;;;3.10;3.00;;;;;;;18.38;65.81;66125.31;5111515;28;20675;-71
2022/08/29 12:28:02;;;;;;;3.13;3.03;;;;;;;18.58;65.22;66138.63;5111035;28;20267;-72